sensor_id;sensor_type;location;lat;lon;timestamp;P1;durP1;ratioP1;P2;durP2;ratioP2
4674;SDS011;2351;50.812;12.872;2022-08-23T00:02:26;4.83;;;2.70;;
4674;SDS011;2351;50.812;12.872;2022-08-23T00:04:58;4.30;;;2.17;;
4674;SDS011;2351;50.812;12.872;2022-08-23T00:07:30;3.10;;;2.80;;
4674;SDS011;2351;50.812;12.872;2022-08-23T00:10:03;5.73;;;3.43;;
4674;SDS011;2351;50.812;12.872;2022-08-23T00:12:35;12.90;;;2.67;;
4674;SDS011;2351;50.812;12.872;2022-08-23T00:15:08;2.83;;;2.57;;
4674;SDS011;2351;50.812;12.872;2022-08-23T00:17:41;9.27;;;2.83;;
4674;SDS011;2351;50.812;12.872;2022-08-23T00:20:14;4.63;;;3.00;;
4674;SDS011;2351;50.812;12.872;2022-08-23T00:22:47;2.80;;;2.03;;
4674;SDS011;2351;50.812;12.872;2022-08-23T00:25:20;6.20;;;2.80;;
4674;SDS011;2351;50.812;12.872;2022-08-23T00:27:52;3.83;;;2.80;;
4674;SDS011;2351;50.812;12.872;2022-08-23T00:30:23;3.17;;;2.23;;
4674;SDS011;2351;50.812;12.872;2022-08-23T00:32:55;3.23;;;2.40;;
4674;SDS011;2351;50.812;12.872;2022-08-23T00:35:27;9.93;;;2.60;;
4674;SDS011;2351;50.812;12.872;2022-08-23T00:37:58;5.80;;;3.13;;
4674;SDS011;2351;50.812;12.872;2022-08-23T00:40:31;3.13;;;2.13;;
4674;SDS011;2351;50.812;12.872;2022-08-23T00:43:04;6.17;;;2.90;;
4674;SDS011;2351;50.812;12.872;2022-08-23T00:45:57;2.90;;;2.70;;
4674;SDS011;2351;50.812;12.872;2022-08-23T00:48:51;4.90;;;3.53;;
4674;SDS011;2351;50.812;12.872;2022-08-23T00:51:25;7.50;;;3.10;;
4674;SDS011;2351;50.812;12.872;2022-08-23T00:54:04;6.10;;;3.47;;
4674;SDS011;2351;50.812;12.872;2022-08-23T00:56:38;3.77;;;3.37;;
4674;SDS011;2351;50.812;12.872;2022-08-23T00:59:10;5.83;;;3.27;;
4674;SDS011;2351;50.812;12.872;2022-08-23T01:01:42;4.00;;;2.83;;
4674;SDS011;2351;50.812;12.872;2022-08-23T01:04:13;3.20;;;2.90;;
4674;SDS011;2351;50.812;12.872;2022-08-23T01:06:47;4.20;;;2.80;;
4674;SDS011;2351;50.812;12.872;2022-08-23T01:09:24;2.97;;;2.60;;
4674;SDS011;2351;50.812;12.872;2022-08-23T01:11:58;6.43;;;3.30;;
4674;SDS011;2351;50.812;12.872;2022-08-23T01:14:35;7.80;;;3.33;;
4674;SDS011;2351;50.812;12.872;2022-08-23T01:17:11;4.30;;;2.87;;
4674;SDS011;2351;50.812;12.872;2022-08-23T01:19:47;4.80;;;2.70;;
4674;SDS011;2351;50.812;12.872;2022-08-23T01:22:24;8.03;;;3.20;;
4674;SDS011;2351;50.812;12.872;2022-08-23T01:25:04;7.37;;;4.00;;
4674;SDS011;2351;50.812;12.872;2022-08-23T01:27:38;5.43;;;3.20;;
4674;SDS011;2351;50.812;12.872;2022-08-23T01:30:11;4.20;;;2.90;;
4674;SDS011;2351;50.812;12.872;2022-08-23T01:32:45;4.47;;;2.70;;
4674;SDS011;2351;50.812;12.872;2022-08-23T01:35:20;6.37;;;3.40;;
4674;SDS011;2351;50.812;12.872;2022-08-23T01:37:56;15.17;;;3.73;;
4674;SDS011;2351;50.812;12.872;2022-08-23T01:40:29;3.90;;;3.00;;
4674;SDS011;2351;50.812;12.872;2022-08-23T01:43:01;4.10;;;2.97;;
4674;SDS011;2351;50.812;12.872;2022-08-23T01:45:35;4.50;;;3.20;;
4674;SDS011;2351;50.812;12.872;2022-08-23T01:48:07;3.70;;;3.20;;
4674;SDS011;2351;50.812;12.872;2022-08-23T01:50:38;6.10;;;2.93;;
4674;SDS011;2351;50.812;12.872;2022-08-23T01:53:10;4.83;;;4.27;;
4674;SDS011;2351;50.812;12.872;2022-08-23T01:55:43;3.80;;;3.10;;
4674;SDS011;2351;50.812;12.872;2022-08-23T01:58:15;3.80;;;3.20;;
4674;SDS011;2351;50.812;12.872;2022-08-23T02:00:47;3.00;;;2.47;;
4674;SDS011;2351;50.812;12.872;2022-08-23T02:03:18;5.87;;;3.67;;
4674;SDS011;2351;50.812;12.872;2022-08-23T02:05:50;6.63;;;3.97;;
4674;SDS011;2351;50.812;12.872;2022-08-23T02:08:22;6.53;;;3.70;;
4674;SDS011;2351;50.812;12.872;2022-08-23T02:11:14;3.60;;;2.97;;
4674;SDS011;2351;50.812;12.872;2022-08-23T02:13:51;8.17;;;4.10;;
4674;SDS011;2351;50.812;12.872;2022-08-23T02:16:24;9.50;;;3.60;;
4674;SDS011;2351;50.812;12.872;2022-08-23T02:18:58;4.60;;;3.10;;
4674;SDS011;2351;50.812;12.872;2022-08-23T02:21:31;4.63;;;3.23;;
4674;SDS011;2351;50.812;12.872;2022-08-23T02:24:05;7.40;;;3.40;;
4674;SDS011;2351;50.812;12.872;2022-08-23T02:26:43;6.90;;;3.63;;
4674;SDS011;2351;50.812;12.872;2022-08-23T02:29:18;8.17;;;4.00;;
4674;SDS011;2351;50.812;12.872;2022-08-23T02:31:50;9.07;;;4.10;;
4674;SDS011;2351;50.812;12.872;2022-08-23T02:34:22;5.73;;;3.97;;
4674;SDS011;2351;50.812;12.872;2022-08-23T02:36:55;10.83;;;4.73;;
4674;SDS011;2351;50.812;12.872;2022-08-23T02:39:26;5.07;;;3.60;;
4674;SDS011;2351;50.812;12.872;2022-08-23T02:42:00;7.07;;;4.40;;
4674;SDS011;2351;50.812;12.872;2022-08-23T02:44:32;6.77;;;4.00;;
4674;SDS011;2351;50.812;12.872;2022-08-23T02:47:04;4.80;;;3.33;;
4674;SDS011;2351;50.812;12.872;2022-08-23T02:49:38;5.83;;;3.60;;
4674;SDS011;2351;50.812;12.872;2022-08-23T02:52:10;8.23;;;3.90;;
4674;SDS011;2351;50.812;12.872;2022-08-23T02:54:41;4.90;;;2.83;;
4674;SDS011;2351;50.812;12.872;2022-08-23T02:57:14;8.10;;;3.50;;
4674;SDS011;2351;50.812;12.872;2022-08-23T02:59:46;4.87;;;3.73;;
4674;SDS011;2351;50.812;12.872;2022-08-23T03:02:17;13.73;;;3.93;;
4674;SDS011;2351;50.812;12.872;2022-08-23T03:04:49;6.50;;;3.70;;
4674;SDS011;2351;50.812;12.872;2022-08-23T03:07:21;5.53;;;3.53;;
4674;SDS011;2351;50.812;12.872;2022-08-23T03:09:52;7.77;;;3.90;;
4674;SDS011;2351;50.812;12.872;2022-08-23T03:12:25;3.60;;;3.00;;
4674;SDS011;2351;50.812;12.872;2022-08-23T03:14:57;4.40;;;3.70;;
4674;SDS011;2351;50.812;12.872;2022-08-23T03:17:28;7.33;;;3.77;;
4674;SDS011;2351;50.812;12.872;2022-08-23T03:20:00;6.13;;;3.60;;
4674;SDS011;2351;50.812;12.872;2022-08-23T03:22:32;5.37;;;3.50;;
4674;SDS011;2351;50.812;12.872;2022-08-23T03:25:04;10.00;;;4.10;;
4674;SDS011;2351;50.812;12.872;2022-08-23T03:27:38;6.03;;;3.37;;
4674;SDS011;2351;50.812;12.872;2022-08-23T03:30:10;12.07;;;3.80;;
4674;SDS011;2351;50.812;12.872;2022-08-23T03:32:42;2.90;;;2.53;;
4674;SDS011;2351;50.812;12.872;2022-08-23T03:35:14;5.20;;;3.60;;
4674;SDS011;2351;50.812;12.872;2022-08-23T03:37:45;6.13;;;3.90;;
4674;SDS011;2351;50.812;12.872;2022-08-23T03:40:17;4.10;;;3.10;;
4674;SDS011;2351;50.812;12.872;2022-08-23T03:42:50;6.53;;;3.70;;
4674;SDS011;2351;50.812;12.872;2022-08-23T03:45:22;4.60;;;3.67;;
4674;SDS011;2351;50.812;12.872;2022-08-23T03:47:53;4.47;;;3.23;;
4674;SDS011;2351;50.812;12.872;2022-08-23T03:50:25;5.17;;;3.87;;
4674;SDS011;2351;50.812;12.872;2022-08-23T03:52:57;8.20;;;3.70;;
4674;SDS011;2351;50.812;12.872;2022-08-23T03:55:29;6.47;;;3.63;;
4674;SDS011;2351;50.812;12.872;2022-08-23T03:58:02;4.80;;;3.20;;
4674;SDS011;2351;50.812;12.872;2022-08-23T04:00:34;6.07;;;3.60;;
4674;SDS011;2351;50.812;12.872;2022-08-23T04:03:05;5.43;;;4.00;;
4674;SDS011;2351;50.812;12.872;2022-08-23T04:05:37;4.57;;;3.50;;
4674;SDS011;2351;50.812;12.872;2022-08-23T04:08:09;4.43;;;3.60;;
4674;SDS011;2351;50.812;12.872;2022-08-23T04:10:41;11.10;;;3.90;;
4674;SDS011;2351;50.812;12.872;2022-08-23T04:13:14;5.80;;;4.27;;
4674;SDS011;2351;50.812;12.872;2022-08-23T04:15:45;4.43;;;3.20;;
4674;SDS011;2351;50.812;12.872;2022-08-23T04:18:19;6.70;;;4.10;;
4674;SDS011;2351;50.812;12.872;2022-08-23T04:20:51;4.73;;;3.53;;
4674;SDS011;2351;50.812;12.872;2022-08-23T04:23:22;6.83;;;3.63;;
4674;SDS011;2351;50.812;12.872;2022-08-23T04:25:56;9.03;;;4.03;;
4674;SDS011;2351;50.812;12.872;2022-08-23T04:28:29;7.43;;;4.70;;
4674;SDS011;2351;50.812;12.872;2022-08-23T04:31:01;5.60;;;3.70;;
4674;SDS011;2351;50.812;12.872;2022-08-23T04:33:33;9.30;;;4.37;;
4674;SDS011;2351;50.812;12.872;2022-08-23T04:36:05;5.80;;;3.73;;
4674;SDS011;2351;50.812;12.872;2022-08-23T04:38:38;9.30;;;4.50;;
4674;SDS011;2351;50.812;12.872;2022-08-23T04:41:09;4.80;;;4.20;;
4674;SDS011;2351;50.812;12.872;2022-08-23T04:44:00;7.27;;;4.17;;
4674;SDS011;2351;50.812;12.872;2022-08-23T04:46:32;6.70;;;4.70;;
4674;SDS011;2351;50.812;12.872;2022-08-23T04:49:03;5.67;;;3.63;;
4674;SDS011;2351;50.812;12.872;2022-08-23T04:51:35;9.50;;;4.93;;
4674;SDS011;2351;50.812;12.872;2022-08-23T04:54:07;10.77;;;5.50;;
4674;SDS011;2351;50.812;12.872;2022-08-23T04:56:39;6.07;;;4.43;;
4674;SDS011;2351;50.812;12.872;2022-08-23T04:59:13;11.03;;;4.67;;
4674;SDS011;2351;50.812;12.872;2022-08-23T05:01:44;10.10;;;3.90;;
4674;SDS011;2351;50.812;12.872;2022-08-23T05:04:16;7.30;;;3.63;;
4674;SDS011;2351;50.812;12.872;2022-08-23T05:06:48;4.50;;;3.97;;
4674;SDS011;2351;50.812;12.872;2022-08-23T05:09:21;4.60;;;3.93;;
4674;SDS011;2351;50.812;12.872;2022-08-23T05:11:54;4.83;;;3.90;;
4674;SDS011;2351;50.812;12.872;2022-08-23T05:14:26;7.57;;;4.43;;
4674;SDS011;2351;50.812;12.872;2022-08-23T05:16:58;6.67;;;3.93;;
4674;SDS011;2351;50.812;12.872;2022-08-23T05:19:31;5.80;;;4.53;;
4674;SDS011;2351;50.812;12.872;2022-08-23T05:22:02;7.23;;;4.50;;
4674;SDS011;2351;50.812;12.872;2022-08-23T05:24:34;8.13;;;5.57;;
4674;SDS011;2351;50.812;12.872;2022-08-23T05:27:06;5.20;;;4.33;;
4674;SDS011;2351;50.812;12.872;2022-08-23T05:29:40;7.50;;;4.53;;
4674;SDS011;2351;50.812;12.872;2022-08-23T05:32:11;10.90;;;4.93;;
4674;SDS011;2351;50.812;12.872;2022-08-23T05:34:43;11.40;;;5.07;;
4674;SDS011;2351;50.812;12.872;2022-08-23T05:37:15;10.33;;;5.27;;
4674;SDS011;2351;50.812;12.872;2022-08-23T05:39:47;7.60;;;4.50;;
4674;SDS011;2351;50.812;12.872;2022-08-23T05:42:19;8.13;;;4.97;;
4674;SDS011;2351;50.812;12.872;2022-08-23T05:44:52;10.93;;;5.60;;
4674;SDS011;2351;50.812;12.872;2022-08-23T05:47:23;7.97;;;5.90;;
4674;SDS011;2351;50.812;12.872;2022-08-23T05:49:57;10.37;;;5.50;;
4674;SDS011;2351;50.812;12.872;2022-08-23T05:52:28;9.53;;;5.60;;
4674;SDS011;2351;50.812;12.872;2022-08-23T05:55:00;10.23;;;5.97;;
4674;SDS011;2351;50.812;12.872;2022-08-23T05:57:32;10.23;;;5.27;;
4674;SDS011;2351;50.812;12.872;2022-08-23T06:00:07;14.10;;;6.47;;
4674;SDS011;2351;50.812;12.872;2022-08-23T06:02:41;12.03;;;5.80;;
4674;SDS011;2351;50.812;12.872;2022-08-23T06:05:13;7.33;;;5.80;;
4674;SDS011;2351;50.812;12.872;2022-08-23T06:07:45;7.97;;;5.20;;
4674;SDS011;2351;50.812;12.872;2022-08-23T06:10:17;10.37;;;5.90;;
4674;SDS011;2351;50.812;12.872;2022-08-23T06:12:50;8.27;;;5.47;;
4674;SDS011;2351;50.812;12.872;2022-08-23T06:15:23;10.50;;;5.80;;
4674;SDS011;2351;50.812;12.872;2022-08-23T06:17:55;27.17;;;6.30;;
4674;SDS011;2351;50.812;12.872;2022-08-23T06:20:27;11.00;;;6.47;;
4674;SDS011;2351;50.812;12.872;2022-08-23T06:22:58;12.60;;;6.20;;
4674;SDS011;2351;50.812;12.872;2022-08-23T06:25:31;10.33;;;5.03;;
4674;SDS011;2351;50.812;12.872;2022-08-23T06:28:06;12.37;;;6.03;;
4674;SDS011;2351;50.812;12.872;2022-08-23T06:30:39;9.13;;;5.83;;
4674;SDS011;2351;50.812;12.872;2022-08-23T06:33:11;8.20;;;5.80;;
4674;SDS011;2351;50.812;12.872;2022-08-23T06:35:43;6.83;;;5.50;;
4674;SDS011;2351;50.812;12.872;2022-08-23T06:38:15;13.53;;;6.00;;
4674;SDS011;2351;50.812;12.872;2022-08-23T06:40:47;9.93;;;5.90;;
4674;SDS011;2351;50.812;12.872;2022-08-23T06:43:18;7.90;;;5.20;;
4674;SDS011;2351;50.812;12.872;2022-08-23T06:45:51;13.30;;;5.90;;
4674;SDS011;2351;50.812;12.872;2022-08-23T06:48:23;8.63;;;4.67;;
4674;SDS011;2351;50.812;12.872;2022-08-23T06:50:55;9.93;;;5.77;;
4674;SDS011;2351;50.812;12.872;2022-08-23T06:53:26;7.87;;;4.90;;
4674;SDS011;2351;50.812;12.872;2022-08-23T06:55:58;9.03;;;5.67;;
4674;SDS011;2351;50.812;12.872;2022-08-23T06:58:29;8.17;;;5.70;;
4674;SDS011;2351;50.812;12.872;2022-08-23T07:01:09;7.37;;;5.20;;
4674;SDS011;2351;50.812;12.872;2022-08-23T07:03:42;8.80;;;5.20;;
4674;SDS011;2351;50.812;12.872;2022-08-23T07:06:14;13.53;;;5.37;;
4674;SDS011;2351;50.812;12.872;2022-08-23T07:08:46;9.50;;;5.37;;
4674;SDS011;2351;50.812;12.872;2022-08-23T07:11:18;11.70;;;5.40;;
4674;SDS011;2351;50.812;12.872;2022-08-23T07:13:51;8.17;;;5.30;;
4674;SDS011;2351;50.812;12.872;2022-08-23T07:16:24;8.20;;;5.20;;
4674;SDS011;2351;50.812;12.872;2022-08-23T07:18:56;13.60;;;5.80;;
4674;SDS011;2351;50.812;12.872;2022-08-23T07:21:27;7.63;;;5.13;;
4674;SDS011;2351;50.812;12.872;2022-08-23T07:24:00;11.70;;;5.10;;
4674;SDS011;2351;50.812;12.872;2022-08-23T07:26:31;7.60;;;5.30;;
4674;SDS011;2351;50.812;12.872;2022-08-23T07:29:03;12.23;;;5.47;;
4674;SDS011;2351;50.812;12.872;2022-08-23T07:31:39;8.30;;;5.10;;
4674;SDS011;2351;50.812;12.872;2022-08-23T07:34:12;7.27;;;5.23;;
4674;SDS011;2351;50.812;12.872;2022-08-23T07:36:44;7.63;;;5.07;;
4674;SDS011;2351;50.812;12.872;2022-08-23T07:39:18;9.27;;;5.50;;
4674;SDS011;2351;50.812;12.872;2022-08-23T07:41:51;6.97;;;4.73;;
4674;SDS011;2351;50.812;12.872;2022-08-23T07:44:22;5.70;;;4.03;;
4674;SDS011;2351;50.812;12.872;2022-08-23T07:46:55;9.07;;;5.73;;
4674;SDS011;2351;50.812;12.872;2022-08-23T07:49:27;8.20;;;4.63;;
4674;SDS011;2351;50.812;12.872;2022-08-23T07:51:59;11.90;;;5.90;;
4674;SDS011;2351;50.812;12.872;2022-08-23T07:54:30;5.53;;;4.07;;
4674;SDS011;2351;50.812;12.872;2022-08-23T07:57:03;5.40;;;4.33;;
4674;SDS011;2351;50.812;12.872;2022-08-23T07:59:34;6.63;;;3.60;;
4674;SDS011;2351;50.812;12.872;2022-08-23T08:02:07;4.13;;;3.73;;
4674;SDS011;2351;50.812;12.872;2022-08-23T08:04:39;5.97;;;3.80;;
4674;SDS011;2351;50.812;12.872;2022-08-23T08:07:11;6.70;;;3.87;;
4674;SDS011;2351;50.812;12.872;2022-08-23T08:09:42;5.20;;;3.80;;
4674;SDS011;2351;50.812;12.872;2022-08-23T08:12:14;6.50;;;3.90;;
4674;SDS011;2351;50.812;12.872;2022-08-23T08:14:46;7.67;;;4.10;;
4674;SDS011;2351;50.812;12.872;2022-08-23T08:17:19;5.33;;;3.53;;
4674;SDS011;2351;50.812;12.872;2022-08-23T08:19:51;6.50;;;3.43;;
4674;SDS011;2351;50.812;12.872;2022-08-23T08:22:22;6.40;;;3.60;;
4674;SDS011;2351;50.812;12.872;2022-08-23T08:24:54;6.63;;;4.03;;
4674;SDS011;2351;50.812;12.872;2022-08-23T08:27:26;4.47;;;4.07;;
4674;SDS011;2351;50.812;12.872;2022-08-23T08:29:58;5.00;;;4.20;;
4674;SDS011;2351;50.812;12.872;2022-08-23T08:32:31;4.43;;;3.87;;
4674;SDS011;2351;50.812;12.872;2022-08-23T08:35:04;5.40;;;3.57;;
4674;SDS011;2351;50.812;12.872;2022-08-23T08:37:36;6.10;;;3.83;;
4674;SDS011;2351;50.812;12.872;2022-08-23T08:40:09;4.80;;;3.27;;
4674;SDS011;2351;50.812;12.872;2022-08-23T08:42:44;8.10;;;3.47;;
4674;SDS011;2351;50.812;12.872;2022-08-23T08:45:26;5.77;;;3.40;;
4674;SDS011;2351;50.812;12.872;2022-08-23T08:48:05;5.27;;;3.57;;
4674;SDS011;2351;50.812;12.872;2022-08-23T08:50:40;6.53;;;3.90;;
4674;SDS011;2351;50.812;12.872;2022-08-23T08:53:16;7.33;;;3.80;;
4674;SDS011;2351;50.812;12.872;2022-08-23T08:55:54;7.33;;;3.70;;
4674;SDS011;2351;50.812;12.872;2022-08-23T08:58:31;4.70;;;2.57;;
4674;SDS011;2351;50.812;12.872;2022-08-23T09:01:11;8.97;;;4.07;;
4674;SDS011;2351;50.812;12.872;2022-08-23T09:03:44;5.70;;;3.60;;
4674;SDS011;2351;50.812;12.872;2022-08-23T09:06:17;6.50;;;3.53;;
4674;SDS011;2351;50.812;12.872;2022-08-23T09:08:56;4.73;;;3.30;;
4674;SDS011;2351;50.812;12.872;2022-08-23T09:11:45;10.47;;;4.27;;
4674;SDS011;2351;50.812;12.872;2022-08-23T09:14:46;7.03;;;3.40;;
4674;SDS011;2351;50.812;12.872;2022-08-23T09:17:30;8.53;;;3.20;;
4674;SDS011;2351;50.812;12.872;2022-08-23T09:20:10;6.37;;;4.60;;
4674;SDS011;2351;50.812;12.872;2022-08-23T09:22:46;4.80;;;3.60;;
4674;SDS011;2351;50.812;12.872;2022-08-23T09:25:28;4.90;;;3.03;;
4674;SDS011;2351;50.812;12.872;2022-08-23T09:28:00;4.87;;;3.73;;
4674;SDS011;2351;50.812;12.872;2022-08-23T09:30:43;10.50;;;3.47;;
4674;SDS011;2351;50.812;12.872;2022-08-23T09:33:17;5.27;;;3.60;;
4674;SDS011;2351;50.812;12.872;2022-08-23T09:36:04;5.00;;;3.33;;
4674;SDS011;2351;50.812;12.872;2022-08-23T09:38:49;4.10;;;3.60;;
4674;SDS011;2351;50.812;12.872;2022-08-23T09:41:25;4.67;;;3.30;;
4674;SDS011;2351;50.812;12.872;2022-08-23T09:44:02;6.10;;;2.73;;
4674;SDS011;2351;50.812;12.872;2022-08-23T09:46:36;4.60;;;2.63;;
4674;SDS011;2351;50.812;12.872;2022-08-23T09:49:21;8.43;;;4.20;;
4674;SDS011;2351;50.812;12.872;2022-08-23T09:51:55;5.27;;;3.17;;
4674;SDS011;2351;50.812;12.872;2022-08-23T09:54:31;5.07;;;2.93;;
4674;SDS011;2351;50.812;12.872;2022-08-23T09:57:06;3.27;;;2.90;;
4674;SDS011;2351;50.812;12.872;2022-08-23T09:59:40;8.33;;;3.67;;
4674;SDS011;2351;50.812;12.872;2022-08-23T10:02:15;5.20;;;2.90;;
4674;SDS011;2351;50.812;12.872;2022-08-23T10:04:56;3.90;;;3.03;;
4674;SDS011;2351;50.812;12.872;2022-08-23T10:07:33;4.00;;;2.70;;
4674;SDS011;2351;50.812;12.872;2022-08-23T10:10:15;5.30;;;2.83;;
4674;SDS011;2351;50.812;12.872;2022-08-23T10:12:54;5.30;;;3.20;;
4674;SDS011;2351;50.812;12.872;2022-08-23T10:15:33;3.80;;;2.43;;
4674;SDS011;2351;50.812;12.872;2022-08-23T10:18:15;2.90;;;2.70;;
4674;SDS011;2351;50.812;12.872;2022-08-23T10:20:56;5.13;;;2.87;;
4674;SDS011;2351;50.812;12.872;2022-08-23T10:23:40;4.60;;;3.00;;
4674;SDS011;2351;50.812;12.872;2022-08-23T10:26:21;5.53;;;2.70;;
4674;SDS011;2351;50.812;12.872;2022-08-23T10:29:00;4.70;;;2.33;;
4674;SDS011;2351;50.812;12.872;2022-08-23T10:31:57;8.33;;;2.90;;
4674;SDS011;2351;50.812;12.872;2022-08-23T10:34:40;2.60;;;2.40;;
4674;SDS011;2351;50.812;12.872;2022-08-23T10:40:19;6.80;;;3.40;;
4674;SDS011;2351;50.812;12.872;2022-08-23T10:43:01;3.83;;;2.70;;
4674;SDS011;2351;50.812;12.872;2022-08-23T10:45:45;4.40;;;3.13;;
4674;SDS011;2351;50.812;12.872;2022-08-23T10:48:20;5.80;;;3.10;;
4674;SDS011;2351;50.812;12.872;2022-08-23T10:50:58;4.53;;;2.87;;
4674;SDS011;2351;50.812;12.872;2022-08-23T10:53:34;5.00;;;3.27;;
4674;SDS011;2351;50.812;12.872;2022-08-23T10:56:10;7.10;;;2.77;;
4674;SDS011;2351;50.812;12.872;2022-08-23T10:58:49;4.00;;;3.10;;
4674;SDS011;2351;50.812;12.872;2022-08-23T11:01:25;5.87;;;2.60;;
4674;SDS011;2351;50.812;12.872;2022-08-23T11:04:04;4.30;;;2.57;;
4674;SDS011;2351;50.812;12.872;2022-08-23T11:06:43;5.37;;;2.73;;
4674;SDS011;2351;50.812;12.872;2022-08-23T11:12:23;9.10;;;2.20;;
4674;SDS011;2351;50.812;12.872;2022-08-23T11:15:00;5.53;;;2.07;;
4674;SDS011;2351;50.812;12.872;2022-08-23T11:17:54;5.33;;;2.33;;
4674;SDS011;2351;50.812;12.872;2022-08-23T11:29:30;8.80;;;3.33;;
4674;SDS011;2351;50.812;12.872;2022-08-23T11:32:13;18.33;;;3.83;;
4674;SDS011;2351;50.812;12.872;2022-08-23T11:35:08;6.23;;;3.80;;
4674;SDS011;2351;50.812;12.872;2022-08-23T11:37:50;9.10;;;3.40;;
4674;SDS011;2351;50.812;12.872;2022-08-23T11:40:38;6.23;;;3.90;;
4674;SDS011;2351;50.812;12.872;2022-08-23T11:43:37;9.20;;;3.53;;
4674;SDS011;2351;50.812;12.872;2022-08-23T11:46:15;3.83;;;3.33;;
4674;SDS011;2351;50.812;12.872;2022-08-23T11:49:19;7.03;;;3.10;;
4674;SDS011;2351;50.812;12.872;2022-08-23T11:52:04;8.03;;;3.60;;
4674;SDS011;2351;50.812;12.872;2022-08-23T11:54:46;11.00;;;3.80;;
4674;SDS011;2351;50.812;12.872;2022-08-23T11:57:34;4.40;;;3.07;;
4674;SDS011;2351;50.812;12.872;2022-08-23T12:00:23;10.30;;;4.10;;
4674;SDS011;2351;50.812;12.872;2022-08-23T12:02:57;6.87;;;4.20;;
4674;SDS011;2351;50.812;12.872;2022-08-23T12:08:50;5.00;;;3.20;;
4674;SDS011;2351;50.812;12.872;2022-08-23T12:11:24;6.00;;;3.20;;
4674;SDS011;2351;50.812;12.872;2022-08-23T12:14:32;11.93;;;3.77;;
4674;SDS011;2351;50.812;12.872;2022-08-23T12:20:29;4.87;;;3.20;;
4674;SDS011;2351;50.812;12.872;2022-08-23T12:23:07;7.60;;;3.90;;
4674;SDS011;2351;50.812;12.872;2022-08-23T12:25:45;8.23;;;3.83;;
4674;SDS011;2351;50.812;12.872;2022-08-23T12:28:31;5.93;;;4.20;;
4674;SDS011;2351;50.812;12.872;2022-08-23T12:31:12;4.70;;;3.03;;
4674;SDS011;2351;50.812;12.872;2022-08-23T12:33:53;5.23;;;4.07;;
4674;SDS011;2351;50.812;12.872;2022-08-23T12:36:35;3.40;;;3.10;;
4674;SDS011;2351;50.812;12.872;2022-08-23T12:39:21;4.50;;;3.27;;
4674;SDS011;2351;50.812;12.872;2022-08-23T12:42:00;3.90;;;3.00;;
4674;SDS011;2351;50.812;12.872;2022-08-23T12:44:35;6.00;;;3.10;;
4674;SDS011;2351;50.812;12.872;2022-08-23T12:47:08;3.70;;;2.70;;
4674;SDS011;2351;50.812;12.872;2022-08-23T12:49:52;5.47;;;3.07;;
4674;SDS011;2351;50.812;12.872;2022-08-23T12:52:28;8.23;;;3.13;;
4674;SDS011;2351;50.812;12.872;2022-08-23T12:55:01;7.80;;;3.90;;
4674;SDS011;2351;50.812;12.872;2022-08-23T12:57:43;4.90;;;3.77;;
4674;SDS011;2351;50.812;12.872;2022-08-23T13:00:24;5.17;;;3.33;;
4674;SDS011;2351;50.812;12.872;2022-08-23T13:02:59;10.10;;;2.93;;
4674;SDS011;2351;50.812;12.872;2022-08-23T13:05:33;14.23;;;4.73;;
4674;SDS011;2351;50.812;12.872;2022-08-23T13:08:09;3.80;;;3.43;;
4674;SDS011;2351;50.812;12.872;2022-08-23T13:10:44;4.90;;;3.30;;
4674;SDS011;2351;50.812;12.872;2022-08-23T13:13:20;5.03;;;2.77;;
4674;SDS011;2351;50.812;12.872;2022-08-23T13:15:54;19.93;;;2.67;;
4674;SDS011;2351;50.812;12.872;2022-08-23T13:18:31;7.33;;;3.03;;
4674;SDS011;2351;50.812;12.872;2022-08-23T13:21:17;8.83;;;3.57;;
4674;SDS011;2351;50.812;12.872;2022-08-23T13:23:55;3.73;;;2.80;;
4674;SDS011;2351;50.812;12.872;2022-08-23T13:26:34;5.33;;;3.57;;
4674;SDS011;2351;50.812;12.872;2022-08-23T13:29:11;3.13;;;2.70;;
4674;SDS011;2351;50.812;12.872;2022-08-23T13:31:54;5.80;;;3.17;;
4674;SDS011;2351;50.812;12.872;2022-08-23T13:34:35;3.90;;;3.10;;
4674;SDS011;2351;50.812;12.872;2022-08-23T13:37:14;5.80;;;2.60;;
4674;SDS011;2351;50.812;12.872;2022-08-23T13:39:50;4.07;;;2.63;;
4674;SDS011;2351;50.812;12.872;2022-08-23T13:42:25;3.80;;;3.13;;
4674;SDS011;2351;50.812;12.872;2022-08-23T13:45:10;9.20;;;3.63;;
4674;SDS011;2351;50.812;12.872;2022-08-23T13:47:45;5.10;;;3.20;;
4674;SDS011;2351;50.812;12.872;2022-08-23T13:50:21;4.00;;;2.60;;
4674;SDS011;2351;50.812;12.872;2022-08-23T13:52:54;2.97;;;2.77;;
4674;SDS011;2351;50.812;12.872;2022-08-23T13:55:26;3.70;;;3.37;;
4674;SDS011;2351;50.812;12.872;2022-08-23T13:57:58;7.50;;;2.53;;
4674;SDS011;2351;50.812;12.872;2022-08-23T14:00:32;3.87;;;2.93;;
4674;SDS011;2351;50.812;12.872;2022-08-23T14:03:03;6.03;;;2.60;;
4674;SDS011;2351;50.812;12.872;2022-08-23T14:05:35;4.93;;;2.70;;
4674;SDS011;2351;50.812;12.872;2022-08-23T14:08:06;7.10;;;2.87;;
4674;SDS011;2351;50.812;12.872;2022-08-23T14:10:38;5.63;;;2.90;;
4674;SDS011;2351;50.812;12.872;2022-08-23T14:13:10;2.80;;;2.50;;
4674;SDS011;2351;50.812;12.872;2022-08-23T14:15:44;2.53;;;2.33;;
4674;SDS011;2351;50.812;12.872;2022-08-23T14:18:16;3.70;;;2.93;;
4674;SDS011;2351;50.812;12.872;2022-08-23T14:20:48;3.63;;;2.50;;
4674;SDS011;2351;50.812;12.872;2022-08-23T14:23:20;6.53;;;2.57;;
4674;SDS011;2351;50.812;12.872;2022-08-23T14:25:52;4.00;;;2.60;;
4674;SDS011;2351;50.812;12.872;2022-08-23T14:28:28;3.60;;;2.70;;
4674;SDS011;2351;50.812;12.872;2022-08-23T14:31:01;7.20;;;2.53;;
4674;SDS011;2351;50.812;12.872;2022-08-23T14:33:33;7.60;;;2.47;;
4674;SDS011;2351;50.812;12.872;2022-08-23T14:36:05;2.60;;;2.37;;
4674;SDS011;2351;50.812;12.872;2022-08-23T14:38:37;4.03;;;2.70;;
4674;SDS011;2351;50.812;12.872;2022-08-23T14:41:10;2.40;;;2.07;;
4674;SDS011;2351;50.812;12.872;2022-08-23T14:43:47;3.70;;;2.40;;
4674;SDS011;2351;50.812;12.872;2022-08-23T14:46:20;3.90;;;2.33;;
4674;SDS011;2351;50.812;12.872;2022-08-23T14:48:53;5.07;;;2.50;;
4674;SDS011;2351;50.812;12.872;2022-08-23T14:51:25;3.30;;;2.40;;
4674;SDS011;2351;50.812;12.872;2022-08-23T14:54:01;5.50;;;2.80;;
4674;SDS011;2351;50.812;12.872;2022-08-23T14:56:34;2.83;;;2.47;;
4674;SDS011;2351;50.812;12.872;2022-08-23T14:59:06;3.10;;;2.37;;
4674;SDS011;2351;50.812;12.872;2022-08-23T15:01:39;3.87;;;2.30;;
4674;SDS011;2351;50.812;12.872;2022-08-23T15:04:10;9.03;;;2.50;;
4674;SDS011;2351;50.812;12.872;2022-08-23T15:06:48;3.10;;;2.27;;
4674;SDS011;2351;50.812;12.872;2022-08-23T15:09:21;6.20;;;2.40;;
4674;SDS011;2351;50.812;12.872;2022-08-23T15:11:52;3.00;;;1.70;;
4674;SDS011;2351;50.812;12.872;2022-08-23T15:14:24;2.47;;;2.10;;
4674;SDS011;2351;50.812;12.872;2022-08-23T15:16:57;2.93;;;2.50;;
4674;SDS011;2351;50.812;12.872;2022-08-23T15:19:29;11.93;;;2.80;;
4674;SDS011;2351;50.812;12.872;2022-08-23T15:22:01;3.33;;;1.77;;
4674;SDS011;2351;50.812;12.872;2022-08-23T15:24:33;2.27;;;2.00;;
4674;SDS011;2351;50.812;12.872;2022-08-23T15:27:04;2.50;;;1.87;;
4674;SDS011;2351;50.812;12.872;2022-08-23T15:29:37;2.30;;;1.80;;
4674;SDS011;2351;50.812;12.872;2022-08-23T15:32:10;2.27;;;1.80;;
4674;SDS011;2351;50.812;12.872;2022-08-23T15:34:41;3.10;;;1.80;;
4674;SDS011;2351;50.812;12.872;2022-08-23T15:37:13;1.97;;;1.63;;
4674;SDS011;2351;50.812;12.872;2022-08-23T15:39:45;6.77;;;2.00;;
4674;SDS011;2351;50.812;12.872;2022-08-23T15:42:17;1.73;;;1.53;;
4674;SDS011;2351;50.812;12.872;2022-08-23T15:44:48;3.50;;;1.87;;
4674;SDS011;2351;50.812;12.872;2022-08-23T15:47:22;1.97;;;1.80;;
4674;SDS011;2351;50.812;12.872;2022-08-23T15:49:56;1.70;;;1.60;;
4674;SDS011;2351;50.812;12.872;2022-08-23T15:52:29;1.37;;;1.23;;
4674;SDS011;2351;50.812;12.872;2022-08-23T15:55:00;3.27;;;1.77;;
4674;SDS011;2351;50.812;12.872;2022-08-23T15:57:37;4.73;;;1.60;;
4674;SDS011;2351;50.812;12.872;2022-08-23T16:00:12;1.80;;;1.67;;
4674;SDS011;2351;50.812;12.872;2022-08-23T16:02:47;6.90;;;2.07;;
4674;SDS011;2351;50.812;12.872;2022-08-23T16:05:19;3.33;;;1.60;;
4674;SDS011;2351;50.812;12.872;2022-08-23T16:07:52;4.40;;;1.40;;
4674;SDS011;2351;50.812;12.872;2022-08-23T16:10:26;1.67;;;1.40;;